Time;durP1;ratioP1;P1;durP2;ratioP2;P2;SDS_P1;SDS_P2;PMS_P1;PMS_P2;Temp;Humidity;BMP_temperature;BMP_pressure;BME280_temperature;BME280_humidity;BME280_pressure;Samples;Min_cycle;Max_cycle;Signal;HPM_P1;HPM_P2
2022/11/27 00:00:46;;;;;;;32.77;19.37;;;;;;;1.62;87.31;96708.23;1738213;82;21147;-73
2022/11/27 00:03:14;;;;;;;13.50;7.97;;;;;;;1.62;87.15;96701.73;1760139;81;21086;-73
2022/11/27 00:05:44;;;;;;;9.87;6.60;;;;;;;1.63;86.94;96697.41;1787569;80;21003;-73
2022/11/27 00:08:11;;;;;;;18.23;10.97;;;;;;;1.64;87.18;96697.47;1758914;81;20999;-73
2022/11/27 00:10:37;;;;;;;24.30;15.43;;;;;;;1.65;87.28;96700.52;1787590;80;21516;-73
2022/11/27 00:13:04;;;;;;;39.57;21.73;;;;;;;1.67;87.30;96696.27;1760279;81;20979;-73
2022/11/27 00:15:31;;;;;;;44.37;23.90;;;;;;;1.75;87.38;96712.12;1787587;80;21109;-73
2022/11/27 00:17:58;;;;;;;18.43;11.77;;;;;;;1.78;87.26;96697.91;1755179;82;21043;-73
2022/11/27 00:20:24;;;;;;;18.17;11.97;;;;;;;1.78;87.24;96696.61;1760109;81;21025;-73
2022/11/27 00:22:51;;;;;;;36.43;20.47;;;;;;;1.80;87.17;96700.16;1787716;80;21453;-73
2022/11/27 00:25:17;;;;;;;37.40;22.27;;;;;;;1.73;86.92;96710.77;1759978;81;21022;-73
2022/11/27 00:27:44;;;;;;;45.50;24.23;;;;;;;1.63;86.97;96704.78;1787795;80;21133;-73
2022/11/27 00:30:11;;;;;;;26.27;16.80;;;;;;;1.64;87.43;96701.37;1738280;82;21009;-73
2022/11/27 00:32:37;;;;;;;39.20;22.40;;;;;;;1.68;87.37;96703.64;1760063;81;21034;-73
2022/11/27 00:35:05;;;;;;;39.30;22.10;;;;;;;1.69;87.58;96708.03;1787678;80;21042;-74
2022/11/27 00:37:31;;;;;;;28.80;15.87;;;;;;;1.71;87.41;96716.36;1760077;81;21011;-73
2022/11/27 00:39:58;;;;;;;25.50;14.80;;;;;;;1.70;87.10;96713.69;1787613;80;20967;-73
2022/11/27 00:42:25;;;;;;;34.33;17.43;;;;;;;1.72;86.82;96720.72;1759697;81;21031;-73
2022/11/27 00:44:51;;;;;;;21.57;12.70;;;;;;;1.64;86.37;96715.68;1790335;80;21038;-73
2022/11/27 00:47:18;;;;;;;24.57;14.17;;;;;;;1.57;86.13;96711.09;1770934;81;21006;-73
2022/11/27 00:49:45;;;;;;;24.70;14.33;;;;;;;1.58;86.90;96712.85;1793214;80;21076;-73
2022/11/27 00:52:12;;;;;;;16.30;10.30;;;;;;;1.56;86.72;96708.00;1770849;81;21053;-73
2022/11/27 00:54:39;;;;;;;11.70;7.67;;;;;;;1.53;86.66;96700.11;1793025;80;20994;-73
2022/11/27 00:57:06;;;;;;;15.83;9.87;;;;;;;1.59;87.24;96707.23;1760303;81;21090;-73
2022/11/27 00:59:32;;;;;;;29.23;17.20;;;;;;;1.64;87.40;96713.50;1793229;80;21050;-73
2022/11/27 01:01:59;;;;;;;24.40;16.00;;;;;;;1.71;87.74;96715.45;1770927;81;21022;-73
2022/11/27 01:04:25;;;;;;;17.77;9.87;;;;;;;1.73;87.17;96707.28;1793037;80;21026;-73
2022/11/27 01:06:52;;;;;;;11.70;7.80;;;;;;;1.71;86.86;96707.25;1770933;81;21106;-73
2022/11/27 01:09:19;;;;;;;6.50;4.20;;;;;;;1.79;87.28;96710.11;1793162;80;21040;-73
2022/11/27 01:11:45;;;;;;;18.10;11.03;;;;;;;1.70;86.42;96705.89;1770826;81;21041;-73
2022/11/27 01:14:16;;;;;;;15.37;9.57;;;;;;;1.64;86.37;96709.59;1793275;80;21448;-73
2022/11/27 01:16:43;;;;;;;23.23;14.07;;;;;;;1.59;86.32;96707.23;1770846;81;20990;-73
2022/11/27 01:19:12;;;;;;;26.80;16.77;;;;;;;1.49;86.52;96705.63;1793033;79;21495;-73
2022/11/27 01:21:39;;;;;;;17.33;11.60;;;;;;;1.38;86.42;96712.16;1770814;81;20974;-73
2022/11/27 01:24:07;;;;;;;18.03;11.70;;;;;;;1.42;87.22;96715.35;1793648;80;21037;-72
2022/11/27 01:26:33;;;;;;;19.13;9.17;;;;;;;1.46;87.02;96712.42;1770866;81;21002;-73
2022/11/27 01:29:01;;;;;;;12.27;7.30;;;;;;;1.37;86.64;96709.11;1793237;80;20986;-73
2022/11/27 01:31:31;;;;;;;7.97;4.63;;;;;;;1.37;86.80;96710.83;1770590;81;21126;-72
2022/11/27 01:34:05;;;;;;;7.37;4.13;;;;;;;1.39;87.04;96710.48;1793179;79;20994;-73
2022/11/27 01:36:33;;;;;;;5.17;3.70;;;;;;;1.36;86.74;96709.95;1770952;81;21010;-73
2022/11/27 01:39:01;;;;;;;6.40;4.37;;;;;;;1.35;86.61;96703.38;1793039;80;20991;-73
2022/11/27 01:41:35;;;;;;;12.77;6.23;;;;;;;1.33;86.54;96698.55;1770735;81;21022;-73
2022/11/27 01:44:27;;;;;;;7.33;4.63;;;;;;;1.30;86.48;96708.00;1793069;80;20946;-72
2022/11/27 01:47:08;;;;;;;6.63;4.37;;;;;;;1.21;86.49;96706.39;1770778;81;21507;-73
2022/11/27 01:49:46;;;;;;;6.13;4.80;;;;;;;1.22;87.06;96704.25;1793345;79;21044;-73
2022/11/27 01:52:20;;;;;;;8.67;6.40;;;;;;;1.25;86.96;96708.25;1770305;81;21094;-73
2022/11/27 01:54:52;;;;;;;11.50;6.80;;;;;;;1.24;87.04;96705.63;1764707;80;21434;-73
2022/11/27 01:57:26;;;;;;;7.60;4.93;;;;;;;1.21;86.92;96707.70;1760076;81;21034;-73
2022/11/27 01:59:55;;;;;;;5.97;4.30;;;;;;;1.23;87.22;96706.01;1793045;80;21520;-73
2022/11/27 02:02:22;;;;;;;7.80;5.10;;;;;;;1.33;87.68;96704.62;1770814;81;21445;-73
2022/11/27 02:04:49;;;;;;;5.33;3.73;;;;;;;1.39;87.02;96710.05;1793230;80;20971;-74
2022/11/27 02:07:15;;;;;;;8.47;4.40;;;;;;;1.42;87.17;96708.85;1770689;81;21022;-74
2022/11/27 02:09:42;;;;;;;5.97;4.13;;;;;;;1.52;87.51;96712.66;1793044;80;20994;-74
2022/11/27 02:12:23;;;;;;;8.23;5.10;;;;;;;1.57;87.08;96715.00;1762002;81;21030;-74
2022/11/27 02:15:17;;;;;;;9.43;3.43;;;;;;;1.50;86.06;96706.09;1769977;81;21010;-74
2022/11/27 02:18:13;;;;;;;5.70;3.50;;;;;;;1.43;85.94;96702.80;1792880;80;21528;-74
2022/11/27 02:21:08;;;;;;;4.00;2.93;;;;;;;1.29;85.72;96704.06;1770846;81;21081;-73
2022/11/27 02:23:58;;;;;;;3.13;2.20;;;;;;;1.18;86.00;96706.27;1793210;80;20975;-73
2022/11/27 02:26:48;;;;;;;4.93;3.40;;;;;;;1.10;85.86;96706.84;1770417;81;21010;-73
2022/11/27 02:29:19;;;;;;;4.27;2.20;;;;;;;1.03;86.27;96705.33;1791290;80;20987;-73
2022/11/27 02:31:51;;;;;;;3.67;2.50;;;;;;;1.01;86.16;96702.20;1770957;81;21006;-73
2022/11/27 02:34:26;;;;;;;3.27;2.00;;;;;;;1.02;86.49;96704.84;1793284;80;21019;-73
2022/11/27 02:37:18;;;;;;;3.50;2.40;;;;;;;1.02;86.78;96707.44;1770986;81;21018;-73
2022/11/27 02:40:02;;;;;;;3.63;2.80;;;;;;;1.02;87.02;96715.66;1792918;80;21002;-73
2022/11/27 02:42:35;;;;;;;3.87;2.30;;;;;;;1.08;87.35;96713.27;1771084;81;21006;-73
2022/11/27 02:45:12;;;;;;;3.97;2.23;;;;;;;1.07;86.95;96705.89;1790679;80;20987;-73
2022/11/27 02:47:43;;;;;;;3.70;2.37;;;;;;;1.08;87.05;96706.77;1760185;81;21011;-73
2022/11/27 02:50:18;;;;;;;5.03;1.93;;;;;;;1.17;87.47;96712.73;1787527;80;21074;-73
2022/11/27 02:52:46;;;;;;;4.60;1.80;;;;;;;1.15;86.58;96717.86;1760205;81;21007;-73
2022/11/27 02:55:16;;;;;;;2.40;1.50;;;;;;;1.13;86.74;96708.23;1782772;80;21042;-73
2022/11/27 02:57:44;;;;;;;4.60;1.50;;;;;;;1.14;86.69;96713.92;1760278;81;21058;-73
2022/11/27 03:00:13;;;;;;;1.93;1.47;;;;;;;1.14;86.60;96712.62;1787769;80;20982;-73
2022/11/27 03:02:48;;;;;;;4.77;1.73;;;;;;;1.14;86.68;96718.70;1760173;81;20998;-73
2022/11/27 03:05:19;;;;;;;3.50;2.10;;;;;;;1.18;86.65;96714.06;1787721;80;21030;-73
2022/11/27 03:08:09;;;;;;;6.57;4.13;;;;;;;1.15;86.22;96720.45;1760154;81;20988;-73
2022/11/27 03:10:47;;;;;;;18.17;9.57;;;;;;;1.13;86.50;96722.11;1726998;83;21019;-73
2022/11/27 03:13:14;;;;;;;13.10;7.27;;;;;;;1.12;86.61;96724.67;1727273;83;21042;-73
2022/11/27 03:16:01;;;;;;;5.00;3.03;;;;;;;1.07;86.50;96727.10;1727121;83;21039;-73
2022/11/27 03:18:42;;;;;;;1.57;1.30;;;;;;;1.08;86.65;96724.96;1704306;84;20999;-73
2022/11/27 03:21:30;;;;;;;1.80;1.40;;;;;;;1.09;86.77;96717.66;1704880;84;21051;-73
2022/11/27 03:23:58;;;;;;;2.50;1.50;;;;;;;1.13;87.04;96716.03;1693606;84;21013;-73
2022/11/27 03:26:25;;;;;;;2.47;1.50;;;;;;;1.08;86.79;96720.67;1704376;84;21037;-73
2022/11/27 03:28:54;;;;;;;4.67;2.70;;;;;;;1.05;86.64;96723.56;1704455;84;21009;-73
2022/11/27 03:31:22;;;;;;;6.50;3.17;;;;;;;0.99;86.58;96724.23;1704288;84;21061;-73
2022/11/27 03:33:50;;;;;;;2.60;1.63;;;;;;;0.96;86.65;96716.72;1704503;84;21487;-73
2022/11/27 03:36:20;;;;;;;3.73;2.37;;;;;;;0.94;86.99;96719.28;1704468;84;21105;-73
2022/11/27 03:38:49;;;;;;;3.77;2.43;;;;;;;1.03;87.55;96721.31;1704411;84;21013;-73
2022/11/27 03:41:51;;;;;;;2.50;2.00;;;;;;;1.03;87.31;96720.92;1704431;84;21088;-73
2022/11/27 03:44:49;;;;;;;3.60;2.17;;;;;;;1.05;87.48;96718.36;1704509;84;21041;-74
2022/11/27 03:48:05;;;;;;;6.57;3.33;;;;;;;1.05;87.36;96720.95;1704397;84;21037;-74
2022/11/27 03:51:12;;;;;;;14.93;7.27;;;;;;;1.11;87.40;96721.59;1704675;84;21049;-73
2022/11/27 03:54:11;;;;;;;12.27;7.80;;;;;;;1.12;87.35;96716.87;1703710;84;21014;-73
2022/11/27 03:56:49;;;;;;;17.13;9.20;;;;;;;1.18;87.65;96727.48;1704323;84;21500;-73
2022/11/27 03:59:25;;;;;;;15.83;8.03;;;;;;;1.21;87.61;96726.28;1704450;84;21030;-73
2022/11/27 04:01:52;;;;;;;12.50;8.03;;;;;;;1.19;87.24;96710.66;1704579;84;21033;-73
2022/11/27 04:04:19;;;;;;;15.87;7.87;;;;;;;1.13;86.89;96716.91;1704519;84;21082;-73
2022/11/27 04:06:46;;;;;;;16.47;8.83;;;;;;;1.10;87.19;96720.70;1704179;84;21049;-73
2022/11/27 04:09:12;;;;;;;13.97;8.03;;;;;;;1.21;87.66;96717.19;1704140;84;21054;-73
2022/11/27 04:11:39;;;;;;;3.70;2.53;;;;;;;1.20;87.10;96715.42;1703678;84;21006;-73
2022/11/27 04:14:06;;;;;;;4.40;2.83;;;;;;;1.20;86.99;96715.42;1704214;84;20994;-73
2022/11/27 04:16:33;;;;;;;12.80;6.47;;;;;;;1.25;87.40;96714.75;1674529;86;21518;-73
2022/11/27 04:18:59;;;;;;;12.77;8.03;;;;;;;1.30;87.08;96720.12;1704243;84;21495;-73
2022/11/27 04:21:26;;;;;;;12.00;7.73;;;;;;;1.32;87.30;96713.69;1703938;84;21062;-74
2022/11/27 04:23:53;;;;;;;16.10;8.67;;;;;;;1.29;86.70;96713.16;1703925;84;21531;-73
2022/11/27 04:26:20;;;;;;;15.27;9.77;;;;;;;1.27;86.96;96710.92;1703828;84;21559;-73
2022/11/27 04:28:47;;;;;;;15.07;9.37;;;;;;;1.26;86.62;96711.73;1703990;84;21038;-73
2022/11/27 04:31:13;;;;;;;14.53;8.93;;;;;;;1.18;86.28;96714.06;1674698;86;20994;-73
2022/11/27 04:33:40;;;;;;;18.00;9.93;;;;;;;1.17;87.04;96712.30;1704237;84;21018;-73
2022/11/27 04:36:07;;;;;;;16.17;11.07;;;;;;;1.22;87.28;96709.88;1704130;84;21010;-73
2022/11/27 04:38:34;;;;;;;16.63;10.20;;;;;;;1.18;86.80;96706.69;1674429;86;20991;-73
2022/11/27 04:41:00;;;;;;;16.30;10.60;;;;;;;1.13;86.94;96707.81;1703875;84;21575;-73
2022/11/27 04:43:27;;;;;;;14.57;9.90;;;;;;;1.16;87.25;96706.65;1703935;84;21077;-73
2022/11/27 04:45:55;;;;;;;17.80;10.90;;;;;;;1.15;87.12;96700.96;1703890;84;21045;-73
2022/11/27 04:48:21;;;;;;;16.00;9.93;;;;;;;1.17;87.22;96708.41;1704111;84;21559;-73
2022/11/27 04:50:48;;;;;;;13.97;9.23;;;;;;;1.11;87.03;96701.70;1674612;86;21531;-73
2022/11/27 04:53:15;;;;;;;9.27;7.00;;;;;;;1.13;87.42;96701.31;1704420;84;21045;-73
2022/11/27 04:55:41;;;;;;;8.83;5.70;;;;;;;1.22;87.72;96695.16;1703790;84;21113;-72
2022/11/27 04:58:08;;;;;;;6.43;4.40;;;;;;;1.29;87.75;96698.44;1704277;84;21046;-73
2022/11/27 05:00:34;;;;;;;9.57;4.97;;;;;;;1.44;87.98;96699.81;1674484;86;21515;-73
2022/11/27 05:03:01;;;;;;;8.37;3.70;;;;;;;1.55;87.98;96698.88;1704032;84;21044;-73
2022/11/27 05:05:28;;;;;;;8.03;3.30;;;;;;;1.59;87.70;96697.73;1704093;84;21021;-73
2022/11/27 05:07:54;;;;;;;7.23;3.17;;;;;;;1.67;87.62;96697.98;1704271;84;21049;-73
2022/11/27 05:10:21;;;;;;;5.37;2.73;;;;;;;1.77;87.65;96701.36;1704153;84;21041;-73
2022/11/27 05:12:48;;;;;;;9.90;3.33;;;;;;;1.78;86.88;96695.73;1704395;84;21066;-73
2022/11/27 05:15:15;;;;;;;9.77;5.67;;;;;;;1.81;86.53;96694.52;1704538;84;21038;-73
2022/11/27 05:17:42;;;;;;;9.87;7.27;;;;;;;1.62;85.41;96697.83;1704365;84;21499;-73
2022/11/27 05:20:09;;;;;;;11.63;8.30;;;;;;;1.44;85.55;96694.19;1704522;84;21065;-73
2022/11/27 05:22:36;;;;;;;12.67;8.13;;;;;;;1.27;85.84;96702.70;1704515;84;21018;-73
2022/11/27 05:25:04;;;;;;;14.77;9.10;;;;;;;1.15;86.21;96698.36;1704412;84;21029;-73
2022/11/27 05:27:30;;;;;;;14.90;10.80;;;;;;;1.04;86.55;96699.29;1704429;84;21045;-73
2022/11/27 05:29:57;;;;;;;15.93;10.03;;;;;;;0.96;87.22;96700.73;1704379;84;21133;-73
2022/11/27 05:32:23;;;;;;;14.13;9.67;;;;;;;0.92;87.02;96701.44;1704441;84;21492;-73
2022/11/27 05:34:50;;;;;;;6.33;3.63;;;;;;;0.94;87.09;96708.01;1704381;84;21086;-73
2022/11/27 05:37:17;;;;;;;4.67;2.87;;;;;;;0.95;86.99;96710.64;1704452;84;20970;-73
2022/11/27 05:39:43;;;;;;;9.20;5.23;;;;;;;1.00;87.36;96710.39;1704432;84;21053;-73
2022/11/27 05:42:10;;;;;;;11.67;8.07;;;;;;;1.03;87.47;96710.53;1704164;84;21018;-73
2022/11/27 05:44:37;;;;;;;14.87;9.83;;;;;;;1.05;87.55;96715.34;1704413;84;21595;-73
2022/11/27 05:47:03;;;;;;;11.27;8.20;;;;;;;1.11;87.58;96716.00;1704359;84;21114;-73
2022/11/27 05:49:30;;;;;;;13.73;8.27;;;;;;;1.15;87.52;96718.28;1704160;84;21013;-73
2022/11/27 05:51:56;;;;;;;11.87;7.97;;;;;;;1.14;87.40;96721.30;1704441;84;21015;-73
2022/11/27 05:54:23;;;;;;;13.20;8.70;;;;;;;1.16;87.35;96727.84;1704459;84;21556;-73
2022/11/27 05:56:50;;;;;;;13.03;9.07;;;;;;;1.19;87.54;96719.75;1704435;84;21045;-73
2022/11/27 05:59:16;;;;;;;11.33;8.90;;;;;;;1.19;87.36;96726.25;1704393;84;21473;-73
2022/11/27 06:01:43;;;;;;;14.57;9.70;;;;;;;1.24;87.74;96720.80;1704448;84;21029;-73
2022/11/27 06:04:10;;;;;;;17.33;10.57;;;;;;;1.35;87.86;96725.06;1704414;84;21062;-73
2022/11/27 06:06:36;;;;;;;6.70;3.00;;;;;;;1.33;87.05;96725.84;1704452;84;21017;-73
2022/11/27 06:09:03;;;;;;;5.20;2.87;;;;;;;1.38;87.75;96729.06;1704504;84;21456;-72
2022/11/27 06:11:30;;;;;;;6.27;2.90;;;;;;;1.52;88.14;96733.47;1674353;86;21500;-73
2022/11/27 06:13:56;;;;;;;5.20;2.60;;;;;;;1.66;87.96;96732.23;1704136;84;21539;-73
2022/11/27 06:16:23;;;;;;;13.37;5.60;;;;;;;1.63;86.57;96731.22;1704216;84;20998;-73
2022/11/27 06:18:54;;;;;;;8.93;6.27;;;;;;;1.57;86.35;96725.83;1704254;84;21029;-73
2022/11/27 06:21:23;;;;;;;11.50;8.33;;;;;;;1.49;86.37;96734.66;1704127;84;21030;-73
2022/11/27 06:23:55;;;;;;;10.60;6.80;;;;;;;1.45;86.54;96731.48;1674651;86;20998;-73
2022/11/27 06:26:29;;;;;;;8.67;5.43;;;;;;;1.39;86.35;96731.28;1704332;84;21535;-73
2022/11/27 06:28:58;;;;;;;5.13;3.60;;;;;;;1.34;86.38;96734.13;1704362;84;21055;-73
2022/11/27 06:31:28;;;;;;;10.40;6.20;;;;;;;1.29;86.40;96730.95;1704331;84;21037;-73
2022/11/27 06:33:55;;;;;;;18.30;11.70;;;;;;;1.26;86.95;96733.44;1704326;84;20990;-73
2022/11/27 06:36:29;;;;;;;18.30;13.13;;;;;;;1.23;87.19;96732.42;1674515;86;21598;-73
2022/11/27 06:38:56;;;;;;;15.67;10.67;;;;;;;1.26;87.43;96731.23;1704251;84;21049;-74
2022/11/27 06:41:25;;;;;;;13.90;9.83;;;;;;;1.27;87.40;96733.02;1704017;84;21076;-73
2022/11/27 06:43:57;;;;;;;13.37;9.07;;;;;;;1.33;87.61;96727.14;1704282;84;21029;-73
2022/11/27 06:46:24;;;;;;;13.27;8.10;;;;;;;1.35;87.36;96728.97;1704356;84;21037;-73
2022/11/27 06:48:53;;;;;;;20.70;13.00;;;;;;;1.39;87.52;96728.68;1674430;86;21054;-73
2022/11/27 06:51:23;;;;;;;22.63;13.97;;;;;;;1.44;87.53;96728.42;1704241;84;21069;-73
2022/11/27 06:53:51;;;;;;;21.87;14.57;;;;;;;1.48;87.25;96738.08;1704263;84;21017;-73
2022/11/27 06:56:23;;;;;;;18.10;12.93;;;;;;;1.44;87.00;96734.92;1704085;84;21054;-72
2022/11/27 06:58:56;;;;;;;14.77;10.57;;;;;;;1.43;87.34;96733.13;1673799;86;21062;-73
2022/11/27 07:01:25;;;;;;;13.72;9.45;;;;;;;1.53;87.87;96731.32;1704225;84;21048;-72
2022/11/27 07:03:52;;;;;;;16.23;10.30;;;;;;;1.54;87.10;96729.59;1704253;84;21001;-73
2022/11/27 07:06:22;;;;;;;21.43;13.43;;;;;;;1.52;87.19;96725.66;1704311;84;21027;-73
2022/11/27 07:08:49;;;;;;;35.70;22.37;;;;;;;1.50;86.83;96726.02;1704297;84;21484;-73
2022/11/27 07:11:20;;;;;;;70.53;41.00;;;;;;;1.49;86.92;96727.74;1704336;84;21081;-71
2022/11/27 07:13:48;;;;;;;56.13;35.00;;;;;;;1.53;87.28;96730.02;1704526;84;21066;-73
2022/11/27 07:16:17;;;;;;;41.03;26.30;;;;;;;1.65;87.86;96729.14;1704437;84;21002;-73
2022/11/27 07:18:48;;;;;;;34.63;22.53;;;;;;;1.77;87.84;96733.01;1704700;84;21469;-73
2022/11/27 07:21:16;;;;;;;35.13;23.77;;;;;;;1.84;87.65;96733.66;1727133;83;21042;-73
2022/11/27 07:23:43;;;;;;;45.00;29.77;;;;;;;1.97;88.02;96734.98;1727084;83;21017;-74
2022/11/27 07:26:17;;;;;;;39.67;26.60;;;;;;;2.12;88.14;96728.53;1726905;83;21031;-73
2022/11/27 07:28:44;;;;;;;66.07;37.73;;;;;;;2.15;87.33;96732.53;1727277;83;21055;-73
2022/11/27 07:31:15;;;;;;;81.67;43.33;;;;;;;2.16;87.06;96732.98;1727131;83;21095;-73
2022/11/27 07:33:42;;;;;;;76.60;42.60;;;;;;;2.22;87.00;96737.92;1727178;83;21528;-73
2022/11/27 07:36:20;;;;;;;88.57;46.50;;;;;;;2.23;86.95;96737.98;1727696;83;21031;-73
2022/11/27 07:38:47;;;;;;;82.10;46.00;;;;;;;2.20;86.50;96731.81;1727140;83;21011;-73
2022/11/27 07:41:14;;;;;;;82.00;47.03;;;;;;;2.16;86.43;96738.19;1727177;83;21074;-73
2022/11/27 07:43:43;;;;;;;65.50;39.60;;;;;;;2.19;86.45;96732.20;1726708;83;21842;-73
2022/11/27 07:46:20;;;;;;;45.67;27.27;;;;;;;2.20;86.30;96734.41;1727136;83;21026;-72
2022/11/27 07:48:48;;;;;;;39.57;23.57;;;;;;;2.20;86.29;96735.29;1727256;83;21042;-73
2022/11/27 07:51:18;;;;;;;38.97;26.20;;;;;;;2.26;86.02;96741.11;1727000;83;21087;-72
2022/11/27 07:53:45;;;;;;;40.43;24.90;;;;;;;2.30;85.90;96740.38;1727336;83;21110;-73
2022/11/27 07:56:14;;;;;;;37.63;25.03;;;;;;;2.30;85.74;96736.47;1727096;83;21066;-72
2022/11/27 07:58:41;;;;;;;29.73;21.80;;;;;;;2.31;85.78;96731.29;1726660;83;21047;-72
2022/11/27 08:01:12;;;;;;;34.40;22.87;;;;;;;2.39;85.81;96735.44;1727212;83;21008;-72
2022/11/27 08:03:39;;;;;;;28.13;19.17;;;;;;;2.52;86.27;96724.59;1727142;83;21019;-73
2022/11/27 08:06:13;;;;;;;29.77;20.27;;;;;;;2.62;85.77;96717.03;1727114;83;21071;-73
2022/11/27 08:08:39;;;;;;;29.50;20.80;;;;;;;2.60;84.74;96723.09;1727314;83;21067;-73
2022/11/27 08:11:05;;;;;;;31.13;20.50;;;;;;;2.65;85.08;96712.81;1727096;83;21030;-73
2022/11/27 08:13:32;;;;;;;38.73;24.90;;;;;;;2.76;85.56;96714.00;1727012;83;21051;-74
2022/11/27 08:15:59;;;;;;;40.90;29.33;;;;;;;2.80;84.42;96710.66;1727088;83;21027;-73
2022/11/27 08:18:25;;;;;;;42.57;29.10;;;;;;;2.78;84.41;96711.02;1727081;83;21066;-73
2022/11/27 08:20:52;;;;;;;42.23;28.33;;;;;;;2.82;84.22;96713.28;1726978;83;21170;-73
2022/11/27 08:23:19;;;;;;;49.03;30.53;;;;;;;2.86;84.23;96706.45;1727181;83;21179;-73
2022/11/27 08:25:45;;;;;;;52.90;33.27;;;;;;;2.91;84.71;96709.66;1727006;83;21080;-73
2022/11/27 08:28:13;;;;;;;54.20;33.30;;;;;;;3.00;84.81;96716.87;1726983;83;21079;-73
2022/11/27 08:30:39;;;;;;;45.13;29.30;;;;;;;3.12;84.55;96716.31;1727172;83;21090;-73
2022/11/27 08:33:06;;;;;;;35.93;23.13;;;;;;;3.16;84.17;96712.54;1727119;83;21074;-73
2022/11/27 08:35:33;;;;;;;26.37;18.33;;;;;;;3.25;84.50;96707.98;1727172;83;21031;-73
2022/11/27 08:37:59;;;;;;;24.90;16.80;;;;;;;3.36;83.68;96710.48;1727156;83;21009;-73
2022/11/27 08:40:26;;;;;;;19.03;13.13;;;;;;;3.37;82.54;96710.05;1727098;83;21135;-73
2022/11/27 08:42:53;;;;;;;16.37;11.97;;;;;;;3.41;82.21;96707.58;1727076;83;21052;-74
2022/11/27 08:45:19;;;;;;;16.03;9.87;;;;;;;3.51;81.77;96708.71;1727114;83;21055;-74
2022/11/27 08:47:46;;;;;;;6.53;4.83;;;;;;;3.61;80.76;96711.14;1727096;83;21127;-73
2022/11/27 08:50:12;;;;;;;4.30;3.13;;;;;;;3.66;80.95;96706.50;1727191;83;20991;-73
2022/11/27 08:52:39;;;;;;;7.20;5.20;;;;;;;3.74;79.77;96700.17;1704453;84;21086;-73
2022/11/27 08:55:07;;;;;;;6.67;4.80;;;;;;;3.80;78.17;96700.73;1704471;84;21013;-73
2022/11/27 08:57:35;;;;;;;6.73;4.87;;;;;;;3.85;77.82;96700.44;1704288;84;21049;-73
2022/11/27 09:00:01;;;;;;;7.87;5.07;;;;;;;3.88;78.68;96698.80;1704403;84;21879;-73
2022/11/27 09:02:28;;;;;;;6.40;4.40;;;;;;;3.95;78.92;96695.02;1704325;84;21086;-73
2022/11/27 09:04:54;;;;;;;6.77;4.80;;;;;;;4.01;78.99;96692.58;1704519;84;21013;-73
2022/11/27 09:07:21;;;;;;;5.13;3.53;;;;;;;4.08;78.73;96688.84;1704498;84;21026;-73
2022/11/27 09:09:48;;;;;;;5.40;3.37;;;;;;;4.19;78.77;96686.48;1704516;84;21002;-72
2022/11/27 09:12:14;;;;;;;4.33;3.17;;;;;;;4.31;77.43;96683.28;1704287;84;21057;-72
2022/11/27 09:14:41;;;;;;;5.70;4.03;;;;;;;4.43;78.32;96682.66;1704416;84;21029;-72
2022/11/27 09:17:08;;;;;;;6.40;3.63;;;;;;;4.54;78.03;96684.67;1704261;84;21070;-73
2022/11/27 09:19:35;;;;;;;6.77;5.20;;;;;;;4.66;77.89;96676.63;1704314;84;21033;-73
2022/11/27 09:22:02;;;;;;;5.37;4.80;;;;;;;4.72;76.76;96678.97;1704310;84;21065;-71
2022/11/27 09:24:28;;;;;;;5.40;4.07;;;;;;;4.78;77.32;96671.23;1704710;84;21002;-71
2022/11/27 09:26:55;;;;;;;11.23;9.20;;;;;;;4.82;76.35;96674.81;1704466;84;21543;-71
2022/11/27 09:29:22;;;;;;;7.23;5.43;;;;;;;4.86;76.01;96675.32;1703959;84;21137;-70
2022/11/27 09:31:48;;;;;;;7.30;5.03;;;;;;;4.91;76.29;96676.73;1704493;84;21014;-70
2022/11/27 09:34:15;;;;;;;8.00;5.00;;;;;;;4.93;75.15;96677.64;1704668;84;21073;-71
2022/11/27 09:36:42;;;;;;;5.60;4.93;;;;;;;4.97;76.03;96679.48;1704415;84;20998;-70
2022/11/27 09:39:08;;;;;;;5.60;3.87;;;;;;;5.03;76.18;96673.06;1704687;84;20991;-70
2022/11/27 09:41:51;;;;;;;5.07;3.37;;;;;;;5.07;75.63;96676.20;1704366;84;20990;-71
2022/11/27 09:44:47;;;;;;;5.50;4.30;;;;;;;5.10;75.18;96671.02;1703987;84;21113;-73
2022/11/27 09:47:40;;;;;;;8.07;6.80;;;;;;;5.17;75.23;96675.53;1703487;84;21038;-73
2022/11/27 09:50:24;;;;;;;6.90;4.60;;;;;;;5.27;74.59;96671.80;1704318;84;21073;-73
2022/11/27 09:53:30;;;;;;;4.63;3.93;;;;;;;5.35;73.37;96664.53;1703080;84;21519;-73
2022/11/27 09:56:02;;;;;;;7.60;5.13;;;;;;;5.39;73.26;96662.84;1704236;84;21085;-73
2022/11/27 09:58:48;;;;;;;4.87;3.80;;;;;;;5.49;72.71;96661.28;1696233;84;21491;-73
2022/11/27 10:01:23;;;;;;;6.93;5.17;;;;;;;5.59;72.41;96661.50;1704547;84;21513;-73
2022/11/27 10:03:50;;;;;;;6.03;4.47;;;;;;;5.71;72.98;96654.27;1704347;84;21013;-73
2022/11/27 10:06:26;;;;;;;5.47;4.17;;;;;;;5.85;72.46;96651.90;1704362;84;21062;-73
2022/11/27 10:09:19;;;;;;;4.60;3.57;;;;;;;5.95;69.12;96652.53;1704523;84;21033;-73
2022/11/27 10:11:57;;;;;;;3.50;2.90;;;;;;;6.05;69.96;96636.54;1705636;84;21010;-73
2022/11/27 10:14:34;;;;;;;6.23;4.63;;;;;;;6.23;70.65;96641.17;1706647;84;21010;-71
2022/11/27 10:17:19;;;;;;;5.00;4.13;;;;;;;6.35;70.30;96638.73;1706190;84;21106;-71
2022/11/27 10:20:27;;;;;;;5.30;3.27;;;;;;;6.50;68.63;96631.50;1706300;84;21021;-73
2022/11/27 10:23:32;;;;;;;3.30;2.70;;;;;;;6.64;67.67;96627.33;1706446;84;21045;-71
2022/11/27 10:26:07;;;;;;;5.40;4.07;;;;;;;6.83;67.95;96619.69;1706200;84;21508;-73
2022/11/27 10:28:42;;;;;;;8.17;6.00;;;;;;;6.99;66.91;96616.40;1706076;84;21038;-71
2022/11/27 10:31:26;;;;;;;9.58;6.00;;;;;;;7.24;66.33;96610.99;1706498;84;21029;-71
2022/11/27 10:34:03;;;;;;;8.95;6.50;;;;;;;7.90;63.34;96601.09;1706562;84;21012;-72
2022/11/27 10:36:40;;;;;;;6.67;4.60;;;;;;;7.90;63.34;96601.09;1706435;84;21468;-71
2022/11/27 10:39:34;;;;;;;4.30;3.30;;;;;;;8.16;62.51;96601.72;1706210;84;21034;-72
2022/11/27 10:42:19;;;;;;;6.25;5.33;;;;;;;8.20;56.81;96596.94;1701880;84;20990;-71
2022/11/27 10:45:03;;;;;;;9.60;5.92;;;;;;;8.23;56.84;96599.58;1706290;84;21033;-72
2022/11/27 10:47:30;;;;;;;;;;;;;;;8.18;52.47;96592.97;1708608;84;21559;-72
2022/11/27 10:49:58;;;;;;;4.72;2.92;;;;;;;8.13;53.92;96590.75;1706353;84;20126;-72
2022/11/27 10:52:25;;;;;;;3.60;2.58;;;;;;;7.99;50.13;96595.05;1706457;84;21476;-72
2022/11/27 10:55:02;;;;;;;3.00;2.52;;;;;;;8.04;53.38;96592.02;1706021;84;21025;-72
2022/11/27 10:57:44;;;;;;;3.27;2.25;;;;;;;8.19;52.94;96590.81;1706531;84;21072;-72
2022/11/27 11:00:23;;;;;;;3.80;3.02;;;;;;;8.20;51.08;96585.98;1706427;84;21523;-71
2022/11/27 11:03:05;;;;;;;4.28;3.20;;;;;;;8.25;51.81;96584.70;1706524;84;21523;-71
2022/11/27 11:05:33;;;;;;;3.67;2.62;;;;;;;8.40;52.82;96587.90;1706499;84;21069;-71
2022/11/27 11:08:17;;;;;;;3.58;2.90;;;;;;;8.35;50.82;96587.83;1706832;84;21511;-71
2022/11/27 11:10:55;;;;;;;5.00;3.55;;;;;;;8.33;50.88;96586.06;1706569;84;21058;-71
2022/11/27 11:13:26;;;;;;;6.92;6.15;;;;;;;8.26;50.87;96590.39;1706330;84;21081;-71
2022/11/27 11:16:16;;;;;;;4.35;3.15;;;;;;;8.15;51.46;96595.59;1706311;84;21058;-72
2022/11/27 11:18:55;;;;;;;3.47;2.65;;;;;;;8.13;50.66;96598.63;1706610;84;21053;-71
2022/11/27 11:21:36;;;;;;;3.45;2.72;;;;;;;8.00;50.88;96590.23;1672966;84;21040;-71
2022/11/27 11:24:17;;;;;;;3.12;2.40;;;;;;;8.05;52.06;96587.20;1706680;84;21030;-71
2022/11/27 11:26:55;;;;;;;4.65;3.08;;;;;;;7.94;49.03;96583.19;1706205;84;21456;-72
2022/11/27 11:29:51;;;;;;;2.92;2.50;;;;;;;8.01;52.49;96584.09;1705697;84;21558;-71
2022/11/27 11:32:26;;;;;;;3.85;3.00;;;;;;;8.09;52.47;96579.79;1700298;84;21468;-71
2022/11/27 11:34:57;;;;;;;3.33;3.00;;;;;;;8.17;52.83;96577.20;1706861;84;21552;-71
2022/11/27 11:37:33;;;;;;;4.20;3.30;;;;;;;8.25;51.85;96575.50;1706533;84;21025;-71
2022/11/27 11:40:13;;;;;;;3.33;2.10;;;;;;;8.26;51.12;96567.17;1706646;84;21038;-71
2022/11/27 11:42:57;;;;;;;2.62;2.10;;;;;;;8.19;51.64;96570.22;1705375;84;21034;-71
2022/11/27 11:45:30;;;;;;;2.80;2.12;;;;;;;8.19;51.25;96571.53;1706393;84;21002;-71
2022/11/27 11:48:01;;;;;;;3.33;2.05;;;;;;;8.04;48.53;96573.63;1706771;84;21010;-71
2022/11/27 11:50:42;;;;;;;3.92;2.40;;;;;;;7.95;49.33;96569.16;1706554;84;21010;-71
2022/11/27 11:53:40;;;;;;;3.00;1.55;;;;;;;7.91;51.36;96571.34;1705227;84;21021;-72
2022/11/27 11:56:33;;;;;;;5.67;3.35;;;;;;;7.85;48.41;96574.34;1706504;84;21174;-71
2022/11/27 11:59:27;;;;;;;4.00;2.45;;;;;;;7.76;49.03;96572.10;1706637;84;21002;-71